Nearby METAR Reports

 

EHGG - Groningen/Eelde, Netherlands
Distance from station: WSW 29km
Updated: 18/11/2019 04:55
Light rain, Drizzle, Mostly cloudy
Light rain, Drizzle, Mostly cloudy
 Wind from N
Wind: N 19 km/h
Temperature: 6°C
Wind Chill: 3°C
Dew Point: 5°C
Humidity: 93%
Barometer: 1006 hPa
Summary: Light rain, Drizzle
Clouds: Mostly cloudy
Visibility: 10 km
Cloud details: Partly cloudy 183 m
Mostly cloudy 213 m
Mostly cloudy 244 m
2019/11/18 03:55 EHGG 180355Z AUTO 35010KT 310V030 9999 -RADZ SCT006 BKN007 BKN008 06/05 Q1006
ETNT - Wittmundhaven(Ga, Germany
Distance from station: ENE 57km
Updated: 18/11/2019 04:20
Light rain, Drizzle, Mist, Mostly cloudy
Light rain, Drizzle, Mist, Mostly cloudy
 Wind from NNE
Wind: NNE 19 km/h
Temperature: 6°C
Wind Chill: 3°C
Dew Point: 6°C
Humidity: 100%
Barometer: 1005 hPa
Summary: Light rain, Drizzle, Mist
Clouds: Mostly cloudy
Visibility: 4 km
Cloud details: Few Clouds 61 m
Mostly cloudy 183 m
2019/11/18 03:20 ETNT 180320Z 03010KT 4000 -RADZ BR FEW002 BKN006 06/06 Q1005 YLO
 
ETWM - Meppen, Germany
Distance from station: SSE 66km
Updated: 18/11/2019 04:20

 Wind from NNE
Wind: NNE 15 km/h
Temperature: 5°C
Wind Chill: 2°C
Dew Point: 5°C
Humidity: 100%
Barometer: 1005 hPa
2019/11/18 03:20 ETWM 180320Z AUTO 02008KT //// // ////// 05/05 Q1005 ///
EHMA - Awg-1 Sea, Netherlands
Distance from station: WNW 70km
Updated: 18/11/2019 04:55
Light rain, Overcast
Light rain, Overcast
 Wind from NNE
Wind: NNE 43 km/h
Temperature: 7°C
Wind Chill: 2°C
Dew Point: 4°C
Humidity: 81%
Barometer: 1008 hPa
Summary: Light rain
Clouds: Overcast
Visibility: 8 km
Cloud details: Few Clouds 305 m
Few Clouds 457 m
Partly cloudy 610 m
Overcast 1036 m
2019/11/18 03:55 EHMA 180355Z AUTO 02023KT 8000 -RA FEW010 FEW015CB SCT020 OVC034 07/04 Q1008 W///H///
 
EHLW - Leeuwarden Rnlaf, Netherlands
Distance from station: W 79km
Updated: 18/11/2019 05:11
Light rain, Showers, Overcast
Light rain, Showers, Overcast
 Wind from N
Wind: N 15 km/h
Temperature: 6°C
Wind Chill: 3°C
Dew Point: 5°C
Humidity: 93%
Barometer: 1008 hPa
Summary: Light rain, Showers
Clouds: Overcast
Visibility: 10 km
Cloud details: Few Clouds 396 m
Few Clouds 457 m
Mostly cloudy 884 m
Overcast 1097 m
2019/11/18 04:11 EHLW 180411Z AUTO 36008KT 9999 -SHRA FEW013 FEW015CB BKN029 OVC036 06/05 Q1008 BLU